Bei Facebook empfehlenBei Twitter postenGoogle plusPinterest

Das Wetter im Erzgebirge am 10.07.2017

Wetter und Klima am 10.07.2017 Holzhau im Erzgebirge (630m ü.NN)
Letzte gemessene Temperatur und Uhrzeit der Messung23:45:00 Uhr16.20 °C
Temperatur (Maximum / Höchstwert) und Uhrzeit der Messung13:45:00 Uhr27.90 °C
Temperatur (Minimum / Tiefstwert) und Uhrzeit der Messung03:45:0014.60 °C
Errechneter Absolutwert der Temperaturschwankungen zwischen Tmin und Tmax des Tages13.30 K
Errechnete Tagesmitteltemperatur20.47500 °C
Gesamt - Niederschlag des Tages (in flüssiger Form)3.11 Liter / m²
Luftdruck (Maximum / Höchstwert) und Zeitpunkt der Messung00:30:00 Uhr1009.90 hPa
Luftdruck (Minimum / Tiefstwert) und Zeitpunkt der Messung19:30:00 Uhr1005.90 hPa
Errechneter Absolutwert der Luftdruckschwankungen des Tages4.00 hPa
Höchste gemessene Windgeschwindigkeit und Uhrzeit der Messung15:15:00 Uhr45.36 km/h
Errechnete Windhäufigkeit in Relation zu den Messwerten des Tages18.75000 %
Niedrigste Windkühle (Windchill) und Zeitpunkt der Messung03:45:00 Uhr14.60 °C
Taupunkt (Maximum / Höchstwert) und Uhrzeit der Messung12:15:00 Uhr19.50 °C
Taupunkt (Minimum / Tiefstwert) und Uhrzeit der Messung03:45:0012.80 °C
Anzahl der automatisch eingelesenen Messwerte 96

Detaillierte Wetter- und Klima- Messwerte für den 10.07.2017 in Holzhau im Erzgebirge (630m ü.NN)
ZeitTemperaturLuftdruckRel. LuftfeuchteWindWindrichtungWindchillTaupunktNiederschlag l/m²
23:45:0016.20 °C1006.90 hPa88.00 %14.20 °C3.11
23:30:0015.90 °C1007.10 hPa87.00 %13.70 °C3.11
23:15:0016.10 °C1007.10 hPa85.00 %13.60 °C3.11
23:00:0016.60 °C1006.90 hPa84.00 %13.90 °C3.11
22:45:0017.30 °C1006.70 hPa84.00 %14.60 °C3.11
22:30:0017.90 °C1006.90 hPa83.00 %15.00 °C3.11
22:15:0018.10 °C1007.00 hPa83.00 %15.20 °C3.11
22:00:0018.10 °C1006.60 hPa83.00 %15.20 °C3.11
21:45:0018.30 °C1006.30 hPa80.00 %14.80 °C3.11
21:30:0018.60 °C1006.30 hPa79.00 %14.90 °C3.11
21:15:0018.90 °C1006.00 hPa79.00 %15.20 °C3.11
21:00:0019.20 °C1006.20 hPa78.00 %15.30 °C3.11
20:45:0019.60 °C1006.00 hPa76.00 %15.30 °C3.11
20:30:0020.30 °C1006.20 hPa75.00 %15.70 °C3.11
20:15:0020.70 °C1006.10 hPa75.00 %5.04 km/hSW20.70 °C16.10 °C3.11
20:00:0020.60 °C1006.00 hPa74.00 %15.80 °C3.11
19:45:0021.10 °C1006.00 hPa73.00 %16.10 °C3.11
19:30:0021.90 °C1005.90 hPa72.00 %16.60 °C3.11
19:15:0022.30 °C1006.10 hPa74.00 %10.44 km/hSW22.30 °C17.40 °C3.11
19:00:0021.90 °C1006.00 hPa74.00 %17.10 °C3.11
18:45:0021.60 °C1006.20 hPa75.00 %17.00 °C3.11
18:30:0021.90 °C1006.20 hPa77.00 %11.52 km/hSSO21.90 °C17.70 °C3.11
18:15:0021.10 °C1006.30 hPa79.00 %17.30 °C3.11
18:00:0020.20 °C1006.40 hPa81.00 %16.80 °C3.11
17:45:0019.80 °C1006.70 hPa76.00 %15.40 °C3.11
17:30:0022.50 °C1006.80 hPa65.00 %6.48 km/hWNW22.50 °C15.60 °C2.08
17:15:0024.20 °C1006.20 hPa56.00 %14.90 °C2.08
17:00:0025.60 °C1005.90 hPa55.00 %15.90 °C2.08
16:45:0026.10 °C1006.00 hPa54.00 %16.10 °C2.08
16:30:0025.90 °C1006.20 hPa54.00 %15.90 °C2.08
16:15:0026.40 °C1006.20 hPa53.00 %30.96 km/hSW28.30 °C16.00 °C2.08
16:00:0026.50 °C1006.20 hPa51.00 %38.88 km/hWSW28.30 °C15.50 °C2.08
15:45:0026.80 °C1006.30 hPa50.00 %9.00 km/hSW26.80 °C15.50 °C2.08
15:30:0026.90 °C1006.30 hPa54.00 %16.80 °C2.08
15:15:0026.60 °C1006.50 hPa53.00 %45.36 km/hSW28.40 °C16.20 °C2.08
15:00:0025.80 °C1006.40 hPa57.00 %30.96 km/hSW27.50 °C16.60 °C2.08
14:45:0026.20 °C1006.70 hPa54.00 %16.20 °C2.08
14:30:0026.40 °C1006.60 hPa59.00 %17.70 °C2.08
14:15:0025.80 °C1006.80 hPa56.00 %16.40 °C2.08
14:00:0026.90 °C1006.70 hPa54.00 %16.80 °C2.08
13:45:0027.90 °C1006.60 hPa53.00 %17.40 °C2.08
13:30:0026.80 °C1006.60 hPa55.00 %17.00 °C2.08
13:15:0027.10 °C1006.40 hPa57.00 %38.88 km/hN29.00 °C17.80 °C2.08
13:00:0027.10 °C1006.20 hPa58.00 %18.10 °C2.08
12:45:0026.30 °C1006.30 hPa59.00 %17.60 °C2.08
12:30:0026.50 °C1006.40 hPa63.00 %18.90 °C2.08
12:15:0026.40 °C1006.90 hPa66.00 %23.40 km/hW28.30 °C19.50 °C2.08
12:00:0024.80 °C1007.00 hPa65.00 %17.80 °C2.08
11:45:0025.10 °C1007.10 hPa65.00 %43.92 km/hSW26.60 °C18.10 °C2.08
11:30:0025.30 °C1007.10 hPa63.00 %1.44 km/hSSW25.30 °C17.70 °C2.08
11:15:0025.10 °C1007.00 hPa65.00 %6.48 km/hSSO25.10 °C18.10 °C2.08
11:00:0025.40 °C1007.20 hPa64.00 %18.10 °C2.08
10:45:0024.60 °C1007.20 hPa68.00 %18.30 °C2.08
10:30:0024.30 °C1007.00 hPa69.00 %9.00 km/hSW24.30 °C18.20 °C2.08
10:15:0023.80 °C1007.00 hPa70.00 %3.96 km/hSW23.80 °C18.00 °C2.08
10:00:0022.80 °C1007.00 hPa73.00 %21.96 km/hONO24.20 °C17.70 °C2.08
09:45:0022.80 °C1007.20 hPa74.00 %17.90 °C2.08
09:30:0022.40 °C1007.10 hPa78.00 %18.40 °C2.08
09:15:0022.20 °C1007.20 hPa79.00 %5.04 km/hSSW22.20 °C18.40 °C2.08
09:00:0021.50 °C1006.80 hPa83.00 %18.50 °C2.08
08:45:0021.40 °C1006.90 hPa83.00 %18.40 °C2.08
08:30:0021.30 °C1006.80 hPa86.00 %18.90 °C2.08
08:15:0020.50 °C1006.80 hPa90.00 %18.80 °C2.08
08:00:0019.40 °C1006.90 hPa91.00 %17.90 °C2.08
07:45:0018.90 °C1006.90 hPa90.00 %17.20 °C2.08
07:30:0018.90 °C1006.90 hPa92.00 %17.60 °C2.08
07:15:0017.30 °C1006.80 hPa94.00 %16.30 °C2.08
07:00:0016.20 °C1007.30 hPa92.00 %14.90 °C2.08
06:45:0016.20 °C1007.30 hPa91.00 %14.70 °C2.08
06:30:0016.40 °C1007.60 hPa90.00 %14.80 °C 
06:15:0016.30 °C1007.60 hPa90.00 %14.70 °C 
06:00:0016.10 °C1007.70 hPa90.00 %14.50 °C 
05:45:0015.90 °C1007.60 hPa90.00 %14.30 °C 
05:30:0015.70 °C1007.70 hPa90.00 %14.10 °C 
05:15:0015.40 °C1007.70 hPa90.00 %13.80 °C 
05:00:0015.40 °C1007.80 hPa91.00 %13.90 °C 
04:45:0015.30 °C1007.80 hPa90.00 %13.70 °C 
04:30:0015.30 °C1007.90 hPa90.00 %13.70 °C 
04:15:0015.20 °C1007.90 hPa91.00 %13.70 °C 
04:00:0014.80 °C1007.90 hPa90.00 %13.20 °C 
03:45:0014.60 °C1007.90 hPa89.00 %12.80 °C 
03:30:0014.80 °C1008.10 hPa89.00 %13.00 °C 
03:15:0014.90 °C1008.10 hPa88.00 %12.90 °C 
03:00:0015.30 °C1008.20 hPa88.00 %13.30 °C 
02:45:0015.60 °C1008.20 hPa89.00 %13.80 °C 
02:30:0015.60 °C1008.40 hPa89.00 %13.80 °C 
02:15:0015.60 °C1008.70 hPa88.00 %13.60 °C 
02:00:0015.80 °C1008.80 hPa87.00 %13.60 °C 
01:45:0016.00 °C1008.90 hPa87.00 %13.80 °C 
01:30:0016.20 °C1009.00 hPa86.00 %13.90 °C 
01:15:0016.50 °C1009.20 hPa86.00 %14.20 °C 
01:00:0016.70 °C1009.40 hPa86.00 %14.30 °C 
00:45:0016.60 °C1009.70 hPa87.00 %14.40 °C 
00:30:0016.10 °C1009.90 hPa87.00 %13.90 °C 
00:15:0016.10 °C1009.70 hPa86.00 %13.80 °C 
00:00:0016.30 °C1009.70 hPa86.00 %14.00 °C 

Permanenter Link zu dieser Seite: Wetter im Erzgebirge am 10.07.2017
Performance-Info: Die Erstellung der Seite / Statistik(en) / Tabelle(n) erforderte 5 Datenbankserver-Abfrage(n) und dauerte 70 Millisekunden. (Dieser Messwert ist von der Gesamt-Auslastung des Servers abhängig.)
Erzgebirge - Wetter | Erzgebirge - Wetter (Mobilgeräte) | Komplette Klimadatenbank